LPA313 VIDP-UGTB
Flight info
| Callsign | LPA313 |
|---|---|
| Flight time | 4h 26m |
| Altitude | 38000 |
| Route | OROTI7C OROTI DCT BUTOP DCT DI DCT LEMOD/N0475F400 DCT RODAR DCT ADEKI DCT LAMUS |
| Aircraft | B772/H-SDE2E3FGHIJ5LORVWXY/LB1D1 |
Departure
| Time | 2026-04-27 13:47 |
|---|---|
| Airport | Indira Gandhi International Airport (VIDP) |
Arrival
| Time | 2026-04-27 18:13 |
|---|---|
| Airport | Tbilisi International Airport (UGTB) |
| Time | Latitude | Longitude | Altitude | Speed | Heading |
|---|---|---|---|---|---|
| 2026-04-27 13:33 | 28.55294 | 77.08285 | 785 ft | 0 kts | 147° |
| 2026-04-27 13:33 | 28.55302 | 77.08279 | 785 ft | 2 kts | 147° |
| 2026-04-27 13:33 | 28.55315 | 77.08270 | 785 ft | 2 kts | 146° |
| 2026-04-27 13:33 | 28.55327 | 77.08261 | 785 ft | 2 kts | 158° |
| 2026-04-27 13:34 | 28.55342 | 77.08258 | 785 ft | 2 kts | 185° |
| 2026-04-27 13:34 | 28.55356 | 77.08262 | 785 ft | 2 kts | 208° |
| 2026-04-27 13:34 | 28.55368 | 77.08273 | 784 ft | 2 kts | 232° |
| 2026-04-27 13:34 | 28.55371 | 77.08276 | 785 ft | 0 kts | 239° |
| 2026-04-27 13:35 | 28.55354 | 77.08247 | 785 ft | 7 kts | 239° |
| 2026-04-27 13:35 | 28.55329 | 77.08199 | 785 ft | 5 kts | 239° |
| 2026-04-27 13:35 | 28.55320 | 77.08180 | 784 ft | 0 kts | 239° |
| 2026-04-27 13:37 | 28.55319 | 77.08179 | 784 ft | 1 kts | 239° |
| 2026-04-27 13:38 | 28.55305 | 77.08153 | 784 ft | 5 kts | 239° |
| 2026-04-27 13:38 | 28.55283 | 77.08111 | 784 ft | 6 kts | 237° |
| 2026-04-27 13:38 | 28.55255 | 77.08058 | 784 ft | 8 kts | 239° |
| 2026-04-27 13:38 | 28.55222 | 77.07994 | 784 ft | 10 kts | 239° |
| 2026-04-27 13:39 | 28.55184 | 77.07928 | 784 ft | 8 kts | 226° |
| 2026-04-27 13:39 | 28.55129 | 77.07900 | 784 ft | 9 kts | 197° |
| 2026-04-27 13:39 | 28.55063 | 77.07882 | 784 ft | 9 kts | 181° |
| 2026-04-27 13:39 | 28.55009 | 77.07919 | 784 ft | 9 kts | 121° |
| 2026-04-27 13:40 | 28.54985 | 77.07999 | 784 ft | 11 kts | 104° |
| 2026-04-27 13:40 | 28.54964 | 77.08091 | 784 ft | 12 kts | 104° |
| 2026-04-27 13:40 | 28.54940 | 77.08194 | 784 ft | 14 kts | 104° |
| 2026-04-27 13:40 | 28.54914 | 77.08308 | 784 ft | 15 kts | 104° |
| 2026-04-27 13:41 | 28.54886 | 77.08428 | 784 ft | 16 kts | 105° |
| 2026-04-27 13:41 | 28.54856 | 77.08557 | 784 ft | 17 kts | 104° |
| 2026-04-27 13:41 | 28.54825 | 77.08693 | 784 ft | 18 kts | 104° |
| 2026-04-27 13:41 | 28.54793 | 77.08833 | 785 ft | 18 kts | 105° |
| 2026-04-27 13:42 | 28.54759 | 77.08980 | 785 ft | 19 kts | 104° |
| 2026-04-27 13:42 | 28.54725 | 77.09131 | 785 ft | 20 kts | 104° |
| 2026-04-27 13:42 | 28.54688 | 77.09287 | 785 ft | 20 kts | 105° |
| 2026-04-27 13:42 | 28.54652 | 77.09444 | 785 ft | 21 kts | 104° |
| 2026-04-27 13:43 | 28.54614 | 77.09608 | 785 ft | 21 kts | 105° |
| 2026-04-27 13:43 | 28.54575 | 77.09774 | 785 ft | 21 kts | 104° |
| 2026-04-27 13:43 | 28.54537 | 77.09940 | 785 ft | 22 kts | 104° |
| 2026-04-27 13:43 | 28.54497 | 77.10113 | 785 ft | 22 kts | 104° |
| 2026-04-27 13:44 | 28.54460 | 77.10276 | 785 ft | 18 kts | 104° |
| 2026-04-27 13:44 | 28.54429 | 77.10413 | 785 ft | 10 kts | 105° |
| 2026-04-27 13:44 | 28.54383 | 77.10478 | 785 ft | 11 kts | 164° |
| 2026-04-27 13:44 | 28.54340 | 77.10473 | 785 ft | 5 kts | 198° |
| 2026-04-27 13:45 | 28.54296 | 77.10456 | 785 ft | 7 kts | 198° |
| 2026-04-27 13:45 | 28.54255 | 77.10418 | 785 ft | 8 kts | 248° |
| 2026-04-27 13:45 | 28.54254 | 77.10344 | 785 ft | 10 kts | 282° |
| 2026-04-27 13:45 | 28.54257 | 77.10331 | 785 ft | 0 kts | 283° |
| 2026-04-27 13:46 | 28.54300 | 77.10138 | 785 ft | 67 kts | 284° |
| 2026-04-27 13:46 | 28.54481 | 77.09289 | 785 ft | 149 kts | 284° |
| 2026-04-27 13:46 | 28.54771 | 77.07994 | 1209 ft | 177 kts | 285° |
| 2026-04-27 13:47 | 28.55013 | 77.06715 | 2294 ft | 164 kts | 278° |
| 2026-04-27 13:47 | 28.54848 | 77.05391 | 2696 ft | 182 kts | 262° |
| 2026-04-27 13:47 | 28.54534 | 77.03957 | 3128 ft | 194 kts | 261° |
| 2026-04-27 13:47 | 28.54213 | 77.02406 | 3503 ft | 211 kts | 262° |
| 2026-04-27 13:48 | 28.53878 | 77.00695 | 3914 ft | 230 kts | 262° |
| 2026-04-27 13:48 | 28.53514 | 76.98832 | 3998 ft | 254 kts | 261° |
| 2026-04-27 13:48 | 28.53114 | 76.96817 | 4004 ft | 263 kts | 261° |
| 2026-04-27 13:48 | 28.52704 | 76.94760 | 4004 ft | 267 kts | 261° |
| 2026-04-27 13:49 | 28.52284 | 76.92659 | 4612 ft | 275 kts | 261° |
| 2026-04-27 13:49 | 28.51866 | 76.90583 | 5590 ft | 270 kts | 261° |
| 2026-04-27 13:49 | 28.51457 | 76.88535 | 6330 ft | 273 kts | 261° |
| 2026-04-27 13:49 | 28.51391 | 76.86396 | 7040 ft | 273 kts | 281° |
| 2026-04-27 13:50 | 28.51775 | 76.84304 | 7844 ft | 274 kts | 285° |
| 2026-04-27 13:50 | 28.52229 | 76.82215 | 8642 ft | 275 kts | 285° |
| 2026-04-27 13:50 | 28.52693 | 76.80104 | 9374 ft | 280 kts | 285° |
| 2026-04-27 13:50 | 28.53167 | 76.77935 | 10042 ft | 288 kts | 285° |
| 2026-04-27 13:51 | 28.53661 | 76.75666 | 10486 ft | 304 kts | 284° |
| 2026-04-27 13:51 | 28.54185 | 76.73273 | 10938 ft | 319 kts | 286° |
| 2026-04-27 13:51 | 28.54987 | 76.70877 | 11355 ft | 335 kts | 296° |
| 2026-04-27 13:51 | 28.56227 | 76.68584 | 11746 ft | 350 kts | 304° |
| 2026-04-27 13:52 | 28.57657 | 76.66270 | 12181 ft | 364 kts | 304° |
| 2026-04-27 13:52 | 28.59136 | 76.63885 | 12724 ft | 374 kts | 304° |
| 2026-04-27 13:52 | 28.60644 | 76.61443 | 13399 ft | 379 kts | 304° |
| 2026-04-27 13:52 | 28.62171 | 76.58963 | 14149 ft | 382 kts | 304° |
| 2026-04-27 13:53 | 28.65217 | 76.54010 | 15614 ft | 388 kts | 304° |
| 2026-04-27 13:53 | 28.66771 | 76.51479 | 16290 ft | 393 kts | 303° |
| 2026-04-27 13:53 | 28.68337 | 76.48924 | 16981 ft | 396 kts | 303° |
| 2026-04-27 13:54 | 28.69913 | 76.46353 | 17667 ft | 400 kts | 303° |
| 2026-04-27 13:54 | 28.71513 | 76.43742 | 18336 ft | 404 kts | 303° |
| 2026-04-27 13:54 | 28.73135 | 76.41091 | 19032 ft | 407 kts | 303° |
| 2026-04-27 13:54 | 28.74755 | 76.38443 | 19701 ft | 410 kts | 303° |
| 2026-04-27 13:55 | 28.76397 | 76.35756 | 20313 ft | 415 kts | 303° |
| 2026-04-27 13:55 | 28.78052 | 76.33048 | 20972 ft | 418 kts | 303° |
| 2026-04-27 13:55 | 28.79715 | 76.30323 | 21650 ft | 421 kts | 303° |
| 2026-04-27 13:55 | 28.81377 | 76.27600 | 22264 ft | 424 kts | 303° |
| 2026-04-27 13:56 | 28.83085 | 76.24796 | 22860 ft | 429 kts | 303° |
| 2026-04-27 13:56 | 28.84784 | 76.22008 | 23459 ft | 432 kts | 303° |
| 2026-04-27 13:56 | 28.86502 | 76.19186 | 24045 ft | 436 kts | 303° |
| 2026-04-27 13:56 | 28.88233 | 76.16341 | 24645 ft | 439 kts | 303° |
| 2026-04-27 13:57 | 28.89971 | 76.13483 | 25235 ft | 441 kts | 302° |
| 2026-04-27 13:57 | 28.91723 | 76.10600 | 25785 ft | 444 kts | 302° |
| 2026-04-27 13:57 | 28.93482 | 76.07703 | 26294 ft | 448 kts | 302° |
| 2026-04-27 13:57 | 28.95262 | 76.04770 | 26786 ft | 452 kts | 302° |
| 2026-04-27 13:58 | 28.97045 | 76.01829 | 27326 ft | 454 kts | 302° |
| 2026-04-27 13:58 | 28.98852 | 75.98847 | 27814 ft | 458 kts | 302° |
| 2026-04-27 13:58 | 29.00662 | 75.95856 | 28297 ft | 461 kts | 302° |
| 2026-04-27 13:58 | 29.02486 | 75.92842 | 28766 ft | 464 kts | 302° |
| 2026-04-27 13:59 | 29.04326 | 75.89799 | 29312 ft | 465 kts | 302° |
| 2026-04-27 13:59 | 29.06160 | 75.86765 | 29986 ft | 463 kts | 302° |
| 2026-04-27 13:59 | 29.07974 | 75.83761 | 30702 ft | 460 kts | 302° |
| 2026-04-27 13:59 | 29.09789 | 75.80753 | 31349 ft | 457 kts | 302° |
| 2026-04-27 14:00 | 29.11605 | 75.77742 | 31927 ft | 456 kts | 302° |
| 2026-04-27 14:00 | 29.13400 | 75.74761 | 32480 ft | 455 kts | 302° |
| 2026-04-27 14:00 | 29.15217 | 75.71743 | 33023 ft | 454 kts | 302° |
| 2026-04-27 14:00 | 29.16999 | 75.68780 | 33617 ft | 453 kts | 302° |
| 2026-04-27 14:01 | 29.18760 | 75.65852 | 34203 ft | 451 kts | 302° |
| 2026-04-27 14:01 | 29.20543 | 75.62884 | 34889 ft | 447 kts | 302° |
| 2026-04-27 14:01 | 29.22274 | 75.60001 | 35538 ft | 443 kts | 302° |
| 2026-04-27 14:01 | 29.24018 | 75.57093 | 36055 ft | 441 kts | 302° |
| 2026-04-27 14:02 | 29.25761 | 75.54185 | 36409 ft | 442 kts | 302° |
| 2026-04-27 14:02 | 29.27490 | 75.51297 | 36777 ft | 442 kts | 302° |
| 2026-04-27 14:02 | 29.29055 | 75.48300 | 37112 ft | 440 kts | 296° |
| 2026-04-27 14:02 | 29.30486 | 75.45200 | 37443 ft | 439 kts | 296° |
| 2026-04-27 14:03 | 29.31904 | 75.42106 | 37643 ft | 441 kts | 296° |
| 2026-04-27 14:03 | 29.35155 | 75.36164 | 37649 ft | 440 kts | 303° |
| 2026-04-27 14:04 | 29.38629 | 75.30424 | 37651 ft | 440 kts | 302° |
| 2026-04-27 14:04 | 29.42129 | 75.24628 | 37643 ft | 441 kts | 302° |
| 2026-04-27 14:05 | 29.45610 | 75.18855 | 37648 ft | 440 kts | 302° |
| 2026-04-27 14:05 | 29.49076 | 75.13094 | 37643 ft | 440 kts | 302° |
| 2026-04-27 14:06 | 29.52549 | 75.07314 | 37647 ft | 440 kts | 302° |
| 2026-04-27 14:06 | 29.56042 | 75.01493 | 37646 ft | 441 kts | 302° |
| 2026-04-27 14:07 | 29.59508 | 74.95709 | 37645 ft | 440 kts | 302° |
| 2026-04-27 14:07 | 29.62948 | 74.89957 | 37646 ft | 441 kts | 302° |
| 2026-04-27 14:08 | 29.66431 | 74.84126 | 37644 ft | 441 kts | 302° |
| 2026-04-27 14:08 | 29.69904 | 74.78304 | 37633 ft | 442 kts | 302° |
| 2026-04-27 14:09 | 29.73364 | 74.72495 | 37637 ft | 443 kts | 302° |
| 2026-04-27 14:09 | 29.76860 | 74.66618 | 37629 ft | 444 kts | 302° |
| 2026-04-27 14:10 | 29.80348 | 74.60746 | 37637 ft | 445 kts | 302° |
| 2026-04-27 14:10 | 29.83820 | 74.54893 | 37639 ft | 444 kts | 302° |
| 2026-04-27 14:11 | 29.87314 | 74.48993 | 37633 ft | 445 kts | 302° |
| 2026-04-27 14:11 | 29.90796 | 74.43105 | 37648 ft | 446 kts | 302° |
| 2026-04-27 14:12 | 29.94271 | 74.37221 | 37652 ft | 446 kts | 302° |
| 2026-04-27 14:12 | 29.97754 | 74.31316 | 37655 ft | 446 kts | 301° |
| 2026-04-27 14:13 | 30.01243 | 74.25388 | 37650 ft | 448 kts | 301° |
| 2026-04-27 14:13 | 30.04753 | 74.19419 | 37643 ft | 448 kts | 301° |
| 2026-04-27 14:14 | 30.08255 | 74.13454 | 37653 ft | 449 kts | 301° |
| 2026-04-27 14:14 | 30.11737 | 74.07516 | 37647 ft | 449 kts | 301° |
| 2026-04-27 14:15 | 30.15235 | 74.01539 | 37636 ft | 450 kts | 301° |
| 2026-04-27 14:15 | 30.18733 | 73.95556 | 37625 ft | 449 kts | 301° |
| 2026-04-27 14:16 | 30.22212 | 73.89594 | 37624 ft | 449 kts | 301° |
| 2026-04-27 14:16 | 30.25691 | 73.83624 | 37622 ft | 447 kts | 301° |
| 2026-04-27 14:17 | 30.29163 | 73.77658 | 37622 ft | 449 kts | 301° |
| 2026-04-27 14:17 | 30.32634 | 73.71683 | 37626 ft | 448 kts | 301° |
| 2026-04-27 14:18 | 30.36085 | 73.65736 | 37624 ft | 447 kts | 301° |
| 2026-04-27 14:18 | 30.39567 | 73.59724 | 37630 ft | 446 kts | 301° |
| 2026-04-27 14:19 | 30.42998 | 73.53793 | 37625 ft | 446 kts | 301° |
| 2026-04-27 14:19 | 30.46465 | 73.47791 | 37604 ft | 447 kts | 301° |
| 2026-04-27 14:20 | 30.49897 | 73.41840 | 37607 ft | 443 kts | 301° |
| 2026-04-27 14:20 | 30.53323 | 73.35889 | 37599 ft | 445 kts | 301° |
| 2026-04-27 14:21 | 30.56733 | 73.29959 | 37609 ft | 445 kts | 301° |
| 2026-04-27 14:21 | 30.60175 | 73.23964 | 37605 ft | 444 kts | 300° |
| 2026-04-27 14:22 | 30.63571 | 73.18040 | 37604 ft | 444 kts | 300° |
| 2026-04-27 14:22 | 30.66991 | 73.12065 | 37609 ft | 444 kts | 300° |
| 2026-04-27 14:23 | 30.70390 | 73.06119 | 37611 ft | 442 kts | 301° |
| 2026-04-27 14:23 | 30.73786 | 73.00169 | 37616 ft | 442 kts | 300° |
| 2026-04-27 14:24 | 30.77192 | 72.94191 | 37617 ft | 443 kts | 301° |
| 2026-04-27 14:24 | 30.80576 | 72.88244 | 37610 ft | 441 kts | 300° |
| 2026-04-27 14:25 | 30.83943 | 72.82317 | 37608 ft | 443 kts | 300° |
| 2026-04-27 14:25 | 30.87335 | 72.76337 | 37605 ft | 443 kts | 300° |
| 2026-04-27 14:26 | 30.90725 | 72.70353 | 37594 ft | 442 kts | 300° |
| 2026-04-27 14:26 | 30.94099 | 72.64386 | 37588 ft | 443 kts | 300° |
| 2026-04-27 14:27 | 30.97463 | 72.58430 | 37592 ft | 441 kts | 300° |
| 2026-04-27 14:27 | 31.00810 | 72.52494 | 37587 ft | 439 kts | 300° |
| 2026-04-27 14:28 | 31.04182 | 72.46503 | 37587 ft | 443 kts | 300° |
| 2026-04-27 14:28 | 31.07539 | 72.40532 | 37589 ft | 441 kts | 300° |
| 2026-04-27 14:29 | 31.10894 | 72.34553 | 37588 ft | 441 kts | 300° |
| 2026-04-27 14:29 | 31.14249 | 72.28567 | 37591 ft | 441 kts | 300° |
| 2026-04-27 14:30 | 31.17587 | 72.22601 | 37595 ft | 440 kts | 300° |
| 2026-04-27 14:30 | 31.20909 | 72.16656 | 37596 ft | 438 kts | 300° |
| 2026-04-27 14:31 | 31.24232 | 72.10699 | 37586 ft | 439 kts | 300° |
| 2026-04-27 14:31 | 31.27568 | 72.04709 | 37579 ft | 437 kts | 300° |
| 2026-04-27 14:32 | 31.30880 | 71.98753 | 37591 ft | 441 kts | 300° |
| 2026-04-27 14:32 | 31.34200 | 71.92773 | 37604 ft | 439 kts | 300° |
| 2026-04-27 14:33 | 31.37518 | 71.86789 | 37605 ft | 439 kts | 299° |
| 2026-04-27 14:33 | 31.40845 | 71.80780 | 37613 ft | 439 kts | 299° |
| 2026-04-27 14:34 | 31.44141 | 71.74815 | 37611 ft | 441 kts | 300° |
| 2026-04-27 14:34 | 31.47468 | 71.68787 | 37609 ft | 438 kts | 299° |
| 2026-04-27 14:35 | 31.50753 | 71.62825 | 37607 ft | 441 kts | 299° |
| 2026-04-27 14:35 | 31.54071 | 71.56793 | 37610 ft | 439 kts | 299° |
| 2026-04-27 14:36 | 31.57379 | 71.50771 | 37614 ft | 439 kts | 299° |
| 2026-04-27 14:36 | 31.60664 | 71.44782 | 37619 ft | 439 kts | 299° |
| 2026-04-27 14:37 | 31.63950 | 71.38779 | 37618 ft | 437 kts | 299° |
| 2026-04-27 14:37 | 31.67219 | 71.32801 | 37633 ft | 437 kts | 299° |
| 2026-04-27 14:38 | 31.70506 | 71.26779 | 37632 ft | 437 kts | 298° |
| 2026-04-27 14:38 | 31.73780 | 71.20771 | 37634 ft | 438 kts | 298° |
| 2026-04-27 14:39 | 31.77049 | 71.14765 | 37641 ft | 437 kts | 298° |
| 2026-04-27 14:39 | 31.80332 | 71.08722 | 37635 ft | 438 kts | 298° |
| 2026-04-27 14:40 | 31.83598 | 71.02702 | 37640 ft | 436 kts | 298° |
| 2026-04-27 14:40 | 31.86844 | 70.96707 | 37639 ft | 436 kts | 298° |
| 2026-04-27 14:41 | 31.90089 | 70.90706 | 37643 ft | 437 kts | 298° |
| 2026-04-27 14:41 | 31.93578 | 70.84840 | 37657 ft | 440 kts | 306° |
| 2026-04-27 14:42 | 31.97568 | 70.79360 | 37659 ft | 442 kts | 306° |
| 2026-04-27 14:42 | 32.01551 | 70.73804 | 37663 ft | 444 kts | 306° |
| 2026-04-27 14:43 | 32.05468 | 70.68279 | 37675 ft | 442 kts | 306° |
| 2026-04-27 14:43 | 32.09419 | 70.62668 | 37695 ft | 447 kts | 305° |
| 2026-04-27 14:44 | 32.13379 | 70.57022 | 37697 ft | 445 kts | 306° |
| 2026-04-27 14:44 | 32.17323 | 70.51385 | 37687 ft | 446 kts | 305° |
| 2026-04-27 14:45 | 32.21267 | 70.45734 | 37719 ft | 448 kts | 306° |
| 2026-04-27 14:45 | 32.25232 | 70.40044 | 37732 ft | 448 kts | 306° |
| 2026-04-27 14:46 | 32.29191 | 70.34352 | 37757 ft | 450 kts | 305° |
| 2026-04-27 14:46 | 32.33159 | 70.28638 | 37790 ft | 451 kts | 305° |
| 2026-04-27 14:47 | 32.37145 | 70.22890 | 37819 ft | 450 kts | 305° |
| 2026-04-27 14:47 | 32.41107 | 70.17167 | 37849 ft | 451 kts | 305° |
| 2026-04-27 14:48 | 32.45061 | 70.11447 | 37884 ft | 453 kts | 305° |
| 2026-04-27 14:48 | 32.51046 | 70.02773 | 37936 ft | 452 kts | 305° |
| 2026-04-27 14:49 | 32.55019 | 69.97002 | 37956 ft | 455 kts | 305° |
| 2026-04-27 14:49 | 32.59006 | 69.91204 | 38048 ft | 454 kts | 305° |
| 2026-04-27 14:50 | 32.62985 | 69.85407 | 38089 ft | 454 kts | 305° |
| 2026-04-27 14:50 | 32.66962 | 69.79604 | 38177 ft | 454 kts | 305° |
| 2026-04-27 14:51 | 32.70941 | 69.73789 | 38230 ft | 453 kts | 305° |
| 2026-04-27 14:51 | 32.74884 | 69.68019 | 38241 ft | 452 kts | 305° |
| 2026-04-27 14:52 | 32.78857 | 69.62194 | 38216 ft | 451 kts | 305° |
| 2026-04-27 14:52 | 32.82795 | 69.56413 | 38192 ft | 454 kts | 305° |
| 2026-04-27 14:53 | 32.86747 | 69.50603 | 38212 ft | 449 kts | 305° |
| 2026-04-27 14:53 | 32.90665 | 69.44830 | 38234 ft | 449 kts | 305° |
| 2026-04-27 14:54 | 32.94584 | 69.39052 | 38250 ft | 447 kts | 305° |
| 2026-04-27 14:54 | 32.98471 | 69.33308 | 38255 ft | 447 kts | 304° |
| 2026-04-27 14:55 | 33.02395 | 69.27501 | 38273 ft | 445 kts | 305° |
| 2026-04-27 14:55 | 33.06258 | 69.21776 | 38298 ft | 445 kts | 305° |
| 2026-04-27 14:56 | 33.10131 | 69.16027 | 38321 ft | 445 kts | 305° |
| 2026-04-27 14:56 | 33.13996 | 69.10280 | 38281 ft | 441 kts | 305° |
| 2026-04-27 14:57 | 33.17819 | 69.04588 | 38328 ft | 444 kts | 305° |
| 2026-04-27 14:57 | 33.21668 | 68.98848 | 38305 ft | 441 kts | 305° |
| 2026-04-27 14:58 | 33.25493 | 68.93134 | 38277 ft | 440 kts | 305° |
| 2026-04-27 14:58 | 33.29313 | 68.87419 | 38278 ft | 441 kts | 305° |
| 2026-04-27 14:59 | 33.33151 | 68.81668 | 38290 ft | 444 kts | 305° |
| 2026-04-27 14:59 | 33.36984 | 68.75917 | 38261 ft | 442 kts | 305° |
| 2026-04-27 15:00 | 33.40809 | 68.70167 | 38273 ft | 446 kts | 304° |
| 2026-04-27 15:00 | 33.44663 | 68.64365 | 38271 ft | 444 kts | 304° |
| 2026-04-27 15:01 | 33.48515 | 68.58558 | 38273 ft | 446 kts | 304° |
| 2026-04-27 15:01 | 33.52349 | 68.52767 | 38270 ft | 444 kts | 304° |
| 2026-04-27 15:02 | 33.56153 | 68.47013 | 38269 ft | 444 kts | 304° |
| 2026-04-27 15:02 | 33.59991 | 68.41199 | 38309 ft | 446 kts | 304° |
| 2026-04-27 15:03 | 33.63839 | 68.35360 | 38321 ft | 445 kts | 304° |
| 2026-04-27 15:03 | 33.67677 | 68.29527 | 38335 ft | 445 kts | 304° |
| 2026-04-27 15:04 | 33.71493 | 68.23717 | 38363 ft | 446 kts | 304° |
| 2026-04-27 15:04 | 33.75342 | 68.17848 | 38390 ft | 445 kts | 304° |
| 2026-04-27 15:05 | 33.79163 | 68.12013 | 38394 ft | 446 kts | 304° |
| 2026-04-27 15:05 | 33.82996 | 68.06149 | 38410 ft | 447 kts | 304° |
| 2026-04-27 15:06 | 33.86825 | 68.00283 | 38421 ft | 447 kts | 303° |
| 2026-04-27 15:06 | 33.90663 | 67.94392 | 38421 ft | 447 kts | 304° |
| 2026-04-27 15:07 | 33.94482 | 67.88522 | 38424 ft | 447 kts | 304° |
| 2026-04-27 15:07 | 33.98317 | 67.82617 | 38425 ft | 448 kts | 304° |
| 2026-04-27 15:08 | 34.02130 | 67.76737 | 38426 ft | 446 kts | 304° |
| 2026-04-27 15:08 | 34.05965 | 67.70812 | 38414 ft | 446 kts | 304° |
| 2026-04-27 15:09 | 34.09765 | 67.64934 | 38397 ft | 444 kts | 304° |
| 2026-04-27 15:09 | 34.13545 | 67.59075 | 38394 ft | 445 kts | 304° |
| 2026-04-27 15:10 | 34.17354 | 67.53162 | 38396 ft | 445 kts | 304° |
| 2026-04-27 15:10 | 34.21149 | 67.47261 | 38377 ft | 445 kts | 304° |
| 2026-04-27 15:11 | 34.24941 | 67.41354 | 38373 ft | 445 kts | 304° |
| 2026-04-27 15:11 | 34.28723 | 67.35455 | 38385 ft | 445 kts | 304° |
| 2026-04-27 15:12 | 34.32506 | 67.29543 | 38392 ft | 444 kts | 303° |
| 2026-04-27 15:12 | 34.36252 | 67.23681 | 38396 ft | 442 kts | 303° |
| 2026-04-27 15:13 | 34.40026 | 67.17763 | 38413 ft | 444 kts | 303° |
| 2026-04-27 15:13 | 34.43774 | 67.11877 | 38417 ft | 443 kts | 303° |
| 2026-04-27 15:14 | 34.47531 | 67.05969 | 38419 ft | 441 kts | 303° |
| 2026-04-27 15:14 | 34.51265 | 67.00085 | 38424 ft | 443 kts | 303° |
| 2026-04-27 15:15 | 34.55006 | 66.94181 | 38402 ft | 442 kts | 303° |
| 2026-04-27 15:15 | 34.58751 | 66.88261 | 38413 ft | 442 kts | 303° |
| 2026-04-27 15:16 | 34.62490 | 66.82340 | 38398 ft | 442 kts | 303° |
| 2026-04-27 15:16 | 34.66193 | 66.76469 | 38405 ft | 440 kts | 303° |
| 2026-04-27 15:17 | 34.69931 | 66.70528 | 38405 ft | 444 kts | 303° |
| 2026-04-27 15:17 | 34.73640 | 66.64627 | 38409 ft | 439 kts | 303° |
| 2026-04-27 15:18 | 34.77340 | 66.58728 | 38407 ft | 441 kts | 303° |
| 2026-04-27 15:18 | 34.81057 | 66.52794 | 38404 ft | 440 kts | 303° |
| 2026-04-27 15:19 | 34.84759 | 66.46873 | 38400 ft | 441 kts | 303° |
| 2026-04-27 15:19 | 34.88469 | 66.40931 | 38413 ft | 439 kts | 303° |
| 2026-04-27 15:20 | 34.92145 | 66.35031 | 38403 ft | 440 kts | 303° |
| 2026-04-27 15:20 | 34.95846 | 66.29081 | 38419 ft | 439 kts | 303° |
| 2026-04-27 15:21 | 34.99513 | 66.23177 | 38431 ft | 440 kts | 303° |
| 2026-04-27 15:21 | 35.03202 | 66.17228 | 38422 ft | 440 kts | 303° |
| 2026-04-27 15:22 | 35.06869 | 66.11303 | 38402 ft | 440 kts | 303° |
| 2026-04-27 15:22 | 35.10567 | 66.05318 | 38397 ft | 443 kts | 303° |
| 2026-04-27 15:23 | 35.14257 | 65.99336 | 38369 ft | 439 kts | 303° |
| 2026-04-27 15:23 | 35.17925 | 65.93382 | 38385 ft | 442 kts | 302° |
| 2026-04-27 15:24 | 35.21617 | 65.87376 | 38358 ft | 441 kts | 303° |
| 2026-04-27 15:24 | 35.25275 | 65.81417 | 38358 ft | 438 kts | 303° |
| 2026-04-27 15:25 | 35.28929 | 65.75452 | 38335 ft | 438 kts | 303° |
| 2026-04-27 15:25 | 35.32579 | 65.69485 | 38336 ft | 438 kts | 303° |
| 2026-04-27 15:26 | 35.36212 | 65.63535 | 38309 ft | 438 kts | 303° |
| 2026-04-27 15:26 | 35.39879 | 65.57517 | 38300 ft | 442 kts | 303° |
| 2026-04-27 15:27 | 35.43516 | 65.51543 | 38310 ft | 439 kts | 303° |
| 2026-04-27 15:27 | 35.47168 | 65.45530 | 38273 ft | 441 kts | 303° |
| 2026-04-27 15:28 | 35.50824 | 65.39501 | 38276 ft | 440 kts | 303° |
| 2026-04-27 15:28 | 35.54457 | 65.33501 | 38272 ft | 440 kts | 302° |
| 2026-04-27 15:29 | 35.58100 | 65.27472 | 38254 ft | 442 kts | 302° |
| 2026-04-27 15:29 | 35.61771 | 65.21388 | 38223 ft | 439 kts | 302° |
| 2026-04-27 15:30 | 35.65391 | 65.15376 | 38189 ft | 441 kts | 302° |
| 2026-04-27 15:30 | 35.69036 | 65.09314 | 38185 ft | 441 kts | 302° |
| 2026-04-27 15:31 | 35.72669 | 65.03259 | 38164 ft | 442 kts | 302° |
| 2026-04-27 15:31 | 35.76318 | 64.97169 | 38152 ft | 442 kts | 302° |
| 2026-04-27 15:32 | 35.79953 | 64.91090 | 38125 ft | 444 kts | 302° |
| 2026-04-27 15:32 | 35.83597 | 64.84988 | 38088 ft | 441 kts | 302° |
| 2026-04-27 15:33 | 35.87224 | 64.78902 | 38070 ft | 441 kts | 302° |
| 2026-04-27 15:33 | 35.90848 | 64.72810 | 38039 ft | 441 kts | 302° |
| 2026-04-27 15:34 | 35.94482 | 64.66688 | 38021 ft | 443 kts | 303° |
| 2026-04-27 15:34 | 35.98109 | 64.60571 | 37999 ft | 442 kts | 302° |
| 2026-04-27 15:35 | 36.01741 | 64.54432 | 37991 ft | 443 kts | 302° |
| 2026-04-27 15:35 | 36.05351 | 64.48323 | 37993 ft | 441 kts | 302° |
| 2026-04-27 15:36 | 36.08959 | 64.42203 | 37961 ft | 442 kts | 303° |
| 2026-04-27 15:36 | 36.12552 | 64.36099 | 37955 ft | 441 kts | 302° |
| 2026-04-27 15:37 | 36.16114 | 64.29922 | 37960 ft | 439 kts | 298° |
| 2026-04-27 15:37 | 36.18993 | 64.23288 | 37958 ft | 438 kts | 294° |
| 2026-04-27 15:38 | 36.21782 | 64.16594 | 37968 ft | 438 kts | 294° |
| 2026-04-27 15:38 | 36.24548 | 64.09903 | 37970 ft | 436 kts | 294° |
| 2026-04-27 15:39 | 36.27317 | 64.03166 | 37966 ft | 439 kts | 294° |
| 2026-04-27 15:39 | 36.30055 | 63.96484 | 37977 ft | 437 kts | 294° |
| 2026-04-27 15:40 | 36.32796 | 63.89776 | 37983 ft | 436 kts | 294° |
| 2026-04-27 15:40 | 36.35529 | 63.83067 | 37981 ft | 437 kts | 294° |
| 2026-04-27 15:41 | 36.38267 | 63.76335 | 37973 ft | 437 kts | 294° |
| 2026-04-27 15:41 | 36.40997 | 63.69606 | 37963 ft | 436 kts | 294° |
| 2026-04-27 15:42 | 36.43714 | 63.62894 | 37958 ft | 436 kts | 294° |
| 2026-04-27 15:42 | 36.46421 | 63.56193 | 37948 ft | 436 kts | 294° |
| 2026-04-27 15:43 | 36.49124 | 63.49488 | 37950 ft | 437 kts | 294° |
| 2026-04-27 15:43 | 36.51844 | 63.42727 | 37942 ft | 435 kts | 294° |
| 2026-04-27 15:44 | 36.54537 | 63.36020 | 37943 ft | 436 kts | 294° |
| 2026-04-27 15:44 | 36.57243 | 63.29265 | 37952 ft | 435 kts | 293° |
| 2026-04-27 15:45 | 36.59935 | 63.22530 | 37940 ft | 437 kts | 294° |
| 2026-04-27 15:45 | 36.62635 | 63.15764 | 37939 ft | 436 kts | 293° |
| 2026-04-27 15:46 | 36.65314 | 63.09032 | 37931 ft | 436 kts | 294° |
| 2026-04-27 15:46 | 36.68001 | 63.02270 | 37924 ft | 437 kts | 294° |
| 2026-04-27 15:47 | 36.70698 | 62.95466 | 37924 ft | 436 kts | 293° |
| 2026-04-27 15:47 | 36.73364 | 62.88725 | 37926 ft | 436 kts | 294° |
| 2026-04-27 15:48 | 36.76041 | 62.81943 | 37921 ft | 436 kts | 294° |
| 2026-04-27 15:49 | 36.80038 | 62.71790 | 37918 ft | 435 kts | 294° |
| 2026-04-27 15:49 | 36.82700 | 62.65011 | 37911 ft | 435 kts | 294° |
| 2026-04-27 15:50 | 36.85353 | 62.58237 | 37909 ft | 435 kts | 294° |
| 2026-04-27 15:50 | 36.87997 | 62.51474 | 37902 ft | 435 kts | 294° |
| 2026-04-27 15:51 | 36.90657 | 62.44656 | 37909 ft | 436 kts | 294° |
| 2026-04-27 15:51 | 36.93300 | 62.37865 | 37907 ft | 436 kts | 294° |
| 2026-04-27 15:52 | 36.95940 | 62.31069 | 37914 ft | 436 kts | 293° |
| 2026-04-27 15:52 | 36.98569 | 62.24285 | 37925 ft | 435 kts | 293° |
| 2026-04-27 15:53 | 37.01201 | 62.17481 | 37918 ft | 435 kts | 293° |
| 2026-04-27 15:53 | 37.03826 | 62.10677 | 37913 ft | 435 kts | 293° |
| 2026-04-27 15:54 | 37.06443 | 62.03882 | 37914 ft | 433 kts | 293° |
| 2026-04-27 15:54 | 37.09041 | 61.97120 | 37926 ft | 433 kts | 293° |
| 2026-04-27 15:55 | 37.11648 | 61.90320 | 37910 ft | 433 kts | 293° |
| 2026-04-27 15:55 | 37.14256 | 61.83504 | 37907 ft | 434 kts | 293° |
| 2026-04-27 15:56 | 37.16853 | 61.76698 | 37899 ft | 435 kts | 293° |
| 2026-04-27 15:56 | 37.19459 | 61.69856 | 37904 ft | 434 kts | 293° |
| 2026-04-27 15:57 | 37.22042 | 61.63061 | 37884 ft | 434 kts | 293° |
| 2026-04-27 15:57 | 37.24634 | 61.56225 | 37894 ft | 433 kts | 294° |
| 2026-04-27 15:58 | 37.27213 | 61.49410 | 37890 ft | 434 kts | 293° |
| 2026-04-27 15:58 | 37.29781 | 61.42609 | 37891 ft | 434 kts | 293° |
| 2026-04-27 15:59 | 37.32359 | 61.35765 | 37898 ft | 434 kts | 294° |
| 2026-04-27 15:59 | 37.34935 | 61.28911 | 37902 ft | 433 kts | 293° |
| 2026-04-27 16:00 | 37.37501 | 61.22070 | 37898 ft | 432 kts | 293° |
| 2026-04-27 16:00 | 37.40046 | 61.15270 | 37901 ft | 432 kts | 293° |
| 2026-04-27 16:01 | 37.42598 | 61.08435 | 37901 ft | 431 kts | 293° |
| 2026-04-27 16:01 | 37.45136 | 61.01623 | 37894 ft | 431 kts | 293° |
| 2026-04-27 16:02 | 37.47657 | 60.94840 | 37894 ft | 432 kts | 293° |
| 2026-04-27 16:02 | 37.50204 | 60.87975 | 37894 ft | 432 kts | 293° |
| 2026-04-27 16:03 | 37.52728 | 60.81155 | 37900 ft | 432 kts | 293° |
| 2026-04-27 16:03 | 37.55271 | 60.74268 | 37888 ft | 432 kts | 293° |
| 2026-04-27 16:04 | 37.57788 | 60.67437 | 37903 ft | 431 kts | 293° |
| 2026-04-27 16:04 | 37.60305 | 60.60590 | 37897 ft | 431 kts | 293° |
| 2026-04-27 16:05 | 37.62812 | 60.53754 | 37892 ft | 431 kts | 293° |
| 2026-04-27 16:05 | 37.65319 | 60.46904 | 37903 ft | 430 kts | 293° |
| 2026-04-27 16:06 | 37.67807 | 60.40091 | 37898 ft | 429 kts | 293° |
| 2026-04-27 16:06 | 37.70304 | 60.33236 | 37900 ft | 429 kts | 292° |
| 2026-04-27 16:07 | 37.72782 | 60.26419 | 37911 ft | 429 kts | 292° |
| 2026-04-27 16:07 | 37.75248 | 60.19619 | 37906 ft | 429 kts | 292° |
| 2026-04-27 16:08 | 37.77728 | 60.12765 | 37901 ft | 429 kts | 292° |
| 2026-04-27 16:08 | 37.80206 | 60.05902 | 37882 ft | 428 kts | 292° |
| 2026-04-27 16:09 | 37.82661 | 59.99086 | 37898 ft | 428 kts | 292° |
| 2026-04-27 16:09 | 37.86337 | 59.88853 | 37900 ft | 427 kts | 292° |
| 2026-04-27 16:10 | 37.91233 | 59.75167 | 37896 ft | 427 kts | 292° |
| 2026-04-27 16:11 | 37.94879 | 59.64934 | 37893 ft | 426 kts | 292° |
| 2026-04-27 16:12 | 37.98521 | 59.54681 | 37908 ft | 427 kts | 292° |
| 2026-04-27 16:13 | 38.02156 | 59.44410 | 37895 ft | 427 kts | 292° |
| 2026-04-27 16:13 | 38.05789 | 59.34108 | 37892 ft | 425 kts | 291° |
| 2026-04-27 16:14 | 38.10589 | 59.20441 | 37896 ft | 425 kts | 291° |
| 2026-04-27 16:15 | 38.15377 | 59.06749 | 37893 ft | 427 kts | 291° |
| 2026-04-27 16:16 | 38.20177 | 58.92954 | 37893 ft | 426 kts | 291° |
| 2026-04-27 16:17 | 38.24937 | 58.79212 | 37897 ft | 427 kts | 291° |
| 2026-04-27 16:18 | 38.29674 | 58.65474 | 37898 ft | 426 kts | 291° |
| 2026-04-27 16:19 | 38.32048 | 58.58564 | 37899 ft | 427 kts | 291° |
| 2026-04-27 16:20 | 38.36765 | 58.44785 | 37895 ft | 425 kts | 291° |
| 2026-04-27 16:21 | 38.40299 | 58.34421 | 37902 ft | 424 kts | 290° |
| 2026-04-27 16:22 | 38.44975 | 58.20645 | 37934 ft | 426 kts | 291° |
| 2026-04-27 16:22 | 38.48485 | 58.10266 | 37911 ft | 426 kts | 291° |
| 2026-04-27 16:23 | 38.51986 | 57.99873 | 37904 ft | 427 kts | 291° |
| 2026-04-27 16:24 | 38.54327 | 57.92904 | 37913 ft | 426 kts | 291° |
| 2026-04-27 16:25 | 38.58974 | 57.79019 | 37891 ft | 427 kts | 291° |
| 2026-04-27 16:26 | 38.63594 | 57.65146 | 37913 ft | 426 kts | 291° |
| 2026-04-27 16:27 | 38.68212 | 57.51214 | 37914 ft | 426 kts | 291° |
| 2026-04-27 16:28 | 38.73959 | 57.33778 | 37902 ft | 427 kts | 290° |
| 2026-04-27 16:29 | 38.79694 | 57.16273 | 37908 ft | 428 kts | 290° |
| 2026-04-27 16:30 | 38.84277 | 57.02207 | 37898 ft | 429 kts | 290° |
| 2026-04-27 16:31 | 38.89983 | 56.84597 | 37891 ft | 426 kts | 290° |
| 2026-04-27 16:32 | 38.93379 | 56.74060 | 37890 ft | 427 kts | 290° |
| 2026-04-27 16:33 | 38.96766 | 56.63514 | 37890 ft | 427 kts | 290° |
| 2026-04-27 16:33 | 38.99026 | 56.56456 | 37888 ft | 427 kts | 290° |
| 2026-04-27 16:34 | 39.01274 | 56.49416 | 37888 ft | 427 kts | 290° |
| 2026-04-27 16:34 | 39.03522 | 56.42359 | 37886 ft | 425 kts | 290° |
| 2026-04-27 16:35 | 39.05757 | 56.35324 | 37883 ft | 426 kts | 290° |
| 2026-04-27 16:36 | 39.09103 | 56.24761 | 37889 ft | 424 kts | 289° |
| 2026-04-27 16:36 | 39.11326 | 56.17719 | 37895 ft | 424 kts | 289° |
| 2026-04-27 16:37 | 39.13534 | 56.10709 | 37895 ft | 424 kts | 289° |
| 2026-04-27 16:37 | 39.15729 | 56.03721 | 37903 ft | 423 kts | 289° |
| 2026-04-27 16:38 | 39.17928 | 55.96704 | 37901 ft | 423 kts | 289° |
| 2026-04-27 16:38 | 39.20126 | 55.89671 | 37897 ft | 426 kts | 289° |
| 2026-04-27 16:39 | 39.22339 | 55.82572 | 37890 ft | 425 kts | 289° |
| 2026-04-27 16:39 | 39.24535 | 55.75511 | 37890 ft | 427 kts | 289° |
| 2026-04-27 16:40 | 39.26732 | 55.68425 | 37885 ft | 425 kts | 289° |
| 2026-04-27 16:40 | 39.28924 | 55.61342 | 37886 ft | 426 kts | 289° |
| 2026-04-27 16:41 | 39.31113 | 55.54245 | 37881 ft | 427 kts | 289° |
| 2026-04-27 16:41 | 39.33296 | 55.47154 | 37884 ft | 425 kts | 289° |
| 2026-04-27 16:42 | 39.35467 | 55.40080 | 37887 ft | 425 kts | 289° |
| 2026-04-27 16:42 | 39.37648 | 55.32957 | 37899 ft | 425 kts | 288° |
| 2026-04-27 16:43 | 39.39805 | 55.25894 | 37903 ft | 426 kts | 288° |
| 2026-04-27 16:43 | 39.41973 | 55.18775 | 37907 ft | 425 kts | 288° |
| 2026-04-27 16:44 | 39.44143 | 55.11629 | 37904 ft | 427 kts | 288° |
| 2026-04-27 16:44 | 39.46301 | 55.04507 | 37900 ft | 427 kts | 288° |
| 2026-04-27 16:45 | 39.48449 | 54.97399 | 37905 ft | 427 kts | 288° |
| 2026-04-27 16:45 | 39.50610 | 54.90228 | 37898 ft | 426 kts | 288° |
| 2026-04-27 16:46 | 39.52759 | 54.83078 | 37912 ft | 427 kts | 288° |
| 2026-04-27 16:46 | 39.54895 | 54.75951 | 37915 ft | 425 kts | 288° |
| 2026-04-27 16:47 | 39.57030 | 54.68809 | 37920 ft | 430 kts | 288° |
| 2026-04-27 16:47 | 39.59166 | 54.61649 | 37920 ft | 426 kts | 288° |
| 2026-04-27 16:48 | 39.61304 | 54.54458 | 37925 ft | 430 kts | 288° |
| 2026-04-27 16:48 | 39.63444 | 54.47243 | 37934 ft | 426 kts | 288° |
| 2026-04-27 16:49 | 39.66633 | 54.36454 | 37919 ft | 429 kts | 288° |
| 2026-04-27 16:49 | 39.68751 | 54.29263 | 37924 ft | 428 kts | 288° |
| 2026-04-27 16:50 | 39.70867 | 54.22059 | 37913 ft | 427 kts | 288° |
| 2026-04-27 16:50 | 39.72981 | 54.14846 | 37917 ft | 428 kts | 288° |
| 2026-04-27 16:51 | 39.75088 | 54.07635 | 37915 ft | 428 kts | 288° |
| 2026-04-27 16:51 | 39.77186 | 54.00434 | 37912 ft | 427 kts | 288° |
| 2026-04-27 16:52 | 39.79279 | 53.93233 | 37914 ft | 428 kts | 287° |
| 2026-04-27 16:52 | 39.81383 | 53.85972 | 37925 ft | 429 kts | 287° |
| 2026-04-27 16:53 | 39.83479 | 53.78717 | 37939 ft | 429 kts | 287° |
| 2026-04-27 16:53 | 39.85567 | 53.71473 | 37935 ft | 429 kts | 287° |
| 2026-04-27 16:54 | 39.87656 | 53.64203 | 37937 ft | 430 kts | 288° |
| 2026-04-27 16:54 | 39.89735 | 53.56952 | 37936 ft | 427 kts | 288° |
| 2026-04-27 16:55 | 39.91799 | 53.49730 | 37934 ft | 429 kts | 287° |
| 2026-04-27 16:55 | 39.93881 | 53.42426 | 37932 ft | 428 kts | 287° |
| 2026-04-27 16:56 | 39.95946 | 53.35158 | 37932 ft | 429 kts | 287° |
| 2026-04-27 16:56 | 39.98010 | 53.27877 | 37935 ft | 428 kts | 287° |
| 2026-04-27 16:57 | 40.00051 | 53.20655 | 37941 ft | 427 kts | 286° |
| 2026-04-27 16:57 | 40.02097 | 53.13395 | 37944 ft | 429 kts | 286° |
| 2026-04-27 16:58 | 40.04149 | 53.06092 | 37935 ft | 427 kts | 287° |
| 2026-04-27 16:58 | 40.06181 | 52.98844 | 37939 ft | 428 kts | 287° |
| 2026-04-27 16:59 | 40.08214 | 52.91568 | 37931 ft | 427 kts | 287° |
| 2026-04-27 16:59 | 40.10242 | 52.84292 | 37938 ft | 427 kts | 286° |
| 2026-04-27 17:00 | 40.13290 | 52.73314 | 37934 ft | 427 kts | 286° |
| 2026-04-27 17:01 | 40.15313 | 52.65998 | 37940 ft | 429 kts | 287° |
| 2026-04-27 17:01 | 40.17337 | 52.58663 | 37941 ft | 429 kts | 286° |
| 2026-04-27 17:02 | 40.19338 | 52.51390 | 37950 ft | 428 kts | 286° |
| 2026-04-27 17:02 | 40.21350 | 52.44056 | 37950 ft | 428 kts | 286° |
| 2026-04-27 17:03 | 40.23350 | 52.36742 | 37932 ft | 427 kts | 286° |
| 2026-04-27 17:03 | 40.25338 | 52.29452 | 37960 ft | 428 kts | 285° |
| 2026-04-27 17:04 | 40.27334 | 52.22114 | 37961 ft | 427 kts | 285° |
| 2026-04-27 17:04 | 40.29317 | 52.14799 | 37964 ft | 428 kts | 285° |
| 2026-04-27 17:05 | 40.31294 | 52.07487 | 37972 ft | 428 kts | 285° |
| 2026-04-27 17:05 | 40.33270 | 52.00155 | 37964 ft | 428 kts | 285° |
| 2026-04-27 17:06 | 40.35236 | 51.92842 | 37979 ft | 429 kts | 285° |
| 2026-04-27 17:06 | 40.37214 | 51.85460 | 37971 ft | 428 kts | 285° |
| 2026-04-27 17:07 | 40.39173 | 51.78128 | 37986 ft | 428 kts | 285° |
| 2026-04-27 17:07 | 40.41133 | 51.70771 | 37975 ft | 429 kts | 285° |
| 2026-04-27 17:08 | 40.43092 | 51.63395 | 37973 ft | 429 kts | 285° |
| 2026-04-27 17:08 | 40.45048 | 51.56008 | 37975 ft | 431 kts | 285° |
| 2026-04-27 17:09 | 40.46845 | 51.48550 | 37981 ft | 428 kts | 281° |
| 2026-04-27 17:09 | 40.48373 | 51.41000 | 37982 ft | 428 kts | 281° |
| 2026-04-27 17:10 | 40.49873 | 51.33478 | 37990 ft | 429 kts | 281° |
| 2026-04-27 17:10 | 40.51369 | 51.25890 | 37998 ft | 428 kts | 281° |
| 2026-04-27 17:11 | 40.52842 | 51.18362 | 38008 ft | 429 kts | 280° |
| 2026-04-27 17:11 | 40.55049 | 51.07004 | 38013 ft | 427 kts | 280° |
| 2026-04-27 17:12 | 40.57236 | 50.95677 | 38019 ft | 426 kts | 280° |
| 2026-04-27 17:13 | 40.58684 | 50.88132 | 38020 ft | 427 kts | 280° |
| 2026-04-27 17:13 | 40.60126 | 50.80599 | 38012 ft | 425 kts | 280° |
| 2026-04-27 17:14 | 40.61562 | 50.73061 | 38020 ft | 427 kts | 280° |
| 2026-04-27 17:14 | 40.63000 | 50.65483 | 38022 ft | 427 kts | 280° |
| 2026-04-27 17:15 | 40.64425 | 50.57946 | 38022 ft | 428 kts | 280° |
| 2026-04-27 17:15 | 40.65853 | 50.50365 | 38027 ft | 428 kts | 280° |
| 2026-04-27 17:16 | 40.67275 | 50.42786 | 38027 ft | 428 kts | 280° |
| 2026-04-27 17:16 | 40.68696 | 50.35183 | 38022 ft | 429 kts | 280° |
| 2026-04-27 17:17 | 40.70112 | 50.27579 | 38042 ft | 427 kts | 279° |
| 2026-04-27 17:17 | 40.71520 | 50.19982 | 38037 ft | 429 kts | 279° |
| 2026-04-27 17:18 | 40.73622 | 50.08586 | 38034 ft | 427 kts | 279° |
| 2026-04-27 17:18 | 40.75015 | 50.00999 | 38038 ft | 428 kts | 279° |
| 2026-04-27 17:19 | 40.76409 | 49.93372 | 38046 ft | 427 kts | 279° |
| 2026-04-27 17:19 | 40.77793 | 49.85771 | 38049 ft | 428 kts | 279° |
| 2026-04-27 17:20 | 40.79184 | 49.78102 | 38060 ft | 428 kts | 279° |
| 2026-04-27 17:20 | 40.80553 | 49.70522 | 38061 ft | 429 kts | 279° |
| 2026-04-27 17:21 | 40.81932 | 49.62860 | 38065 ft | 430 kts | 279° |
| 2026-04-27 17:21 | 40.83305 | 49.55196 | 38070 ft | 428 kts | 279° |
| 2026-04-27 17:22 | 40.84664 | 49.47578 | 38069 ft | 429 kts | 279° |
| 2026-04-27 17:22 | 40.86025 | 49.39919 | 38071 ft | 428 kts | 279° |
| 2026-04-27 17:23 | 40.87379 | 49.32268 | 38085 ft | 429 kts | 279° |
| 2026-04-27 17:23 | 40.88727 | 49.24622 | 38098 ft | 429 kts | 279° |
| 2026-04-27 17:24 | 40.90076 | 49.16936 | 38105 ft | 429 kts | 279° |
| 2026-04-27 17:24 | 40.91415 | 49.09270 | 38099 ft | 431 kts | 279° |
| 2026-04-27 17:25 | 40.92755 | 49.01572 | 38096 ft | 430 kts | 279° |
| 2026-04-27 17:25 | 40.94088 | 48.93881 | 38100 ft | 430 kts | 278° |
| 2026-04-27 17:26 | 40.95419 | 48.86167 | 38094 ft | 430 kts | 279° |
| 2026-04-27 17:26 | 40.96743 | 48.78459 | 38094 ft | 430 kts | 279° |
| 2026-04-27 17:27 | 40.98058 | 48.70778 | 38099 ft | 430 kts | 279° |
| 2026-04-27 17:27 | 40.99374 | 48.63052 | 38104 ft | 430 kts | 279° |
| 2026-04-27 17:28 | 41.00670 | 48.55408 | 38106 ft | 429 kts | 279° |
| 2026-04-27 17:29 | 41.02618 | 48.43863 | 38101 ft | 430 kts | 279° |
| 2026-04-27 17:29 | 41.03918 | 48.36114 | 38105 ft | 431 kts | 279° |
| 2026-04-27 17:30 | 41.05213 | 48.28363 | 38120 ft | 431 kts | 278° |
| 2026-04-27 17:30 | 41.07138 | 48.16774 | 38122 ft | 432 kts | 278° |
| 2026-04-27 17:31 | 41.08421 | 48.09013 | 38116 ft | 431 kts | 278° |
| 2026-04-27 17:31 | 41.09686 | 48.01321 | 38117 ft | 432 kts | 278° |
| 2026-04-27 17:32 | 41.11596 | 47.89645 | 38104 ft | 432 kts | 278° |
| 2026-04-27 17:33 | 41.12854 | 47.81909 | 38083 ft | 431 kts | 278° |
| 2026-04-27 17:33 | 41.14113 | 47.74134 | 38084 ft | 434 kts | 278° |
| 2026-04-27 17:34 | 41.15370 | 47.66337 | 38103 ft | 432 kts | 278° |
| 2026-04-27 17:34 | 41.16621 | 47.58540 | 38116 ft | 433 kts | 278° |
| 2026-04-27 17:35 | 41.17860 | 47.50792 | 37902 ft | 428 kts | 278° |
| 2026-04-27 17:35 | 41.18471 | 47.46949 | 37103 ft | 430 kts | 278° |
| 2026-04-27 17:35 | 41.19089 | 47.43058 | 36363 ft | 431 kts | 278° |
| 2026-04-27 17:35 | 41.19697 | 47.39217 | 35679 ft | 433 kts | 278° |
| 2026-04-27 17:36 | 41.20320 | 47.35270 | 34902 ft | 437 kts | 278° |
| 2026-04-27 17:36 | 41.20936 | 47.31359 | 34024 ft | 441 kts | 278° |
| 2026-04-27 17:36 | 41.21565 | 47.27359 | 33102 ft | 444 kts | 278° |
| 2026-04-27 17:36 | 41.22189 | 47.23383 | 32236 ft | 446 kts | 278° |
| 2026-04-27 17:37 | 41.22823 | 47.19336 | 31377 ft | 447 kts | 278° |
| 2026-04-27 17:37 | 41.23451 | 47.15319 | 30576 ft | 447 kts | 278° |
| 2026-04-27 17:37 | 41.24075 | 47.11320 | 30105 ft | 440 kts | 278° |
| 2026-04-27 17:37 | 41.24693 | 47.07352 | 29614 ft | 433 kts | 278° |
| 2026-04-27 17:38 | 41.25293 | 47.03485 | 29086 ft | 438 kts | 278° |
| 2026-04-27 17:38 | 41.25913 | 46.99463 | 28519 ft | 448 kts | 279° |
| 2026-04-27 17:38 | 41.26538 | 46.95417 | 27953 ft | 445 kts | 278° |
| 2026-04-27 17:38 | 41.27155 | 46.91416 | 27395 ft | 439 kts | 279° |
| 2026-04-27 17:39 | 41.27756 | 46.87502 | 26859 ft | 433 kts | 279° |
| 2026-04-27 17:39 | 41.28357 | 46.83589 | 26317 ft | 427 kts | 279° |
| 2026-04-27 17:39 | 41.28939 | 46.79777 | 25781 ft | 423 kts | 279° |
| 2026-04-27 17:39 | 41.29523 | 46.75946 | 25236 ft | 421 kts | 279° |
| 2026-04-27 17:40 | 41.30159 | 46.72180 | 24679 ft | 420 kts | 283° |
| 2026-04-27 17:40 | 41.30949 | 46.68444 | 24111 ft | 416 kts | 284° |
| 2026-04-27 17:40 | 41.31736 | 46.64755 | 23545 ft | 414 kts | 284° |
| 2026-04-27 17:40 | 41.32513 | 46.61086 | 23016 ft | 411 kts | 284° |
| 2026-04-27 17:41 | 41.33267 | 46.57494 | 22478 ft | 408 kts | 284° |
| 2026-04-27 17:41 | 41.34021 | 46.53876 | 21909 ft | 404 kts | 284° |
| 2026-04-27 17:41 | 41.34762 | 46.50305 | 21381 ft | 399 kts | 284° |
| 2026-04-27 17:41 | 41.35496 | 46.46753 | 20845 ft | 396 kts | 284° |
| 2026-04-27 17:42 | 41.36216 | 46.43254 | 20273 ft | 395 kts | 284° |
| 2026-04-27 17:42 | 41.36939 | 46.39737 | 19734 ft | 392 kts | 284° |
| 2026-04-27 17:42 | 41.37642 | 46.36303 | 19205 ft | 389 kts | 284° |
| 2026-04-27 17:42 | 41.38346 | 46.32856 | 18640 ft | 386 kts | 283° |
| 2026-04-27 17:43 | 41.39046 | 46.29421 | 18101 ft | 383 kts | 283° |
| 2026-04-27 17:43 | 41.39742 | 46.26008 | 17555 ft | 380 kts | 283° |
| 2026-04-27 17:43 | 41.40426 | 46.22636 | 17020 ft | 377 kts | 283° |
| 2026-04-27 17:43 | 41.41108 | 46.19274 | 16465 ft | 374 kts | 283° |
| 2026-04-27 17:44 | 41.41775 | 46.15980 | 15943 ft | 371 kts | 284° |
| 2026-04-27 17:44 | 41.42448 | 46.12647 | 15400 ft | 369 kts | 284° |
| 2026-04-27 17:44 | 41.43103 | 46.09400 | 14859 ft | 366 kts | 284° |
| 2026-04-27 17:44 | 41.43760 | 46.06136 | 14341 ft | 363 kts | 284° |
| 2026-04-27 17:45 | 41.44413 | 46.02893 | 13803 ft | 361 kts | 284° |
| 2026-04-27 17:45 | 41.45053 | 45.99703 | 13265 ft | 359 kts | 284° |
| 2026-04-27 17:45 | 41.45695 | 45.96501 | 12717 ft | 356 kts | 284° |
| 2026-04-27 17:45 | 41.46331 | 45.93323 | 12165 ft | 353 kts | 284° |
| 2026-04-27 17:46 | 41.46960 | 45.90173 | 11645 ft | 350 kts | 284° |
| 2026-04-27 17:46 | 41.47582 | 45.87054 | 11132 ft | 348 kts | 284° |
| 2026-04-27 17:46 | 41.48195 | 45.83978 | 10719 ft | 341 kts | 284° |
| 2026-04-27 17:46 | 41.48785 | 45.81009 | 10648 ft | 326 kts | 285° |
| 2026-04-27 17:47 | 41.49356 | 45.78135 | 10534 ft | 310 kts | 285° |
| 2026-04-27 17:47 | 41.49714 | 45.76331 | 10439 ft | 298 kts | 285° |
| 2026-04-27 17:47 | 41.50392 | 45.72908 | 10335 ft | 277 kts | 285° |
| 2026-04-27 17:47 | 41.50879 | 45.70449 | 10211 ft | 269 kts | 285° |
| 2026-04-27 17:48 | 41.51346 | 45.68083 | 10088 ft | 261 kts | 285° |
| 2026-04-27 17:48 | 41.51808 | 45.65739 | 9818 ft | 260 kts | 285° |
| 2026-04-27 17:48 | 41.52265 | 45.63428 | 9489 ft | 261 kts | 285° |
| 2026-04-27 17:48 | 41.52729 | 45.61070 | 9178 ft | 261 kts | 286° |
| 2026-04-27 17:49 | 41.53191 | 45.58722 | 8875 ft | 261 kts | 285° |
| 2026-04-27 17:49 | 41.53646 | 45.56403 | 8588 ft | 260 kts | 286° |
| 2026-04-27 17:49 | 41.54105 | 45.54065 | 8296 ft | 259 kts | 286° |
| 2026-04-27 17:49 | 41.54353 | 45.51707 | 8004 ft | 258 kts | 270° |
| 2026-04-27 17:50 | 41.54252 | 45.49397 | 7885 ft | 242 kts | 267° |
| 2026-04-27 17:50 | 41.53968 | 45.45089 | 7670 ft | 229 kts | 267° |
| 2026-04-27 17:50 | 41.53828 | 45.42979 | 7428 ft | 227 kts | 268° |
| 2026-04-27 17:51 | 41.53690 | 45.40884 | 7181 ft | 227 kts | 268° |
| 2026-04-27 17:51 | 41.53550 | 45.38788 | 6971 ft | 225 kts | 268° |
| 2026-04-27 17:51 | 41.53415 | 45.36761 | 6892 ft | 217 kts | 268° |
| 2026-04-27 17:51 | 41.53281 | 45.34781 | 6799 ft | 209 kts | 268° |
| 2026-04-27 17:52 | 41.53155 | 45.32887 | 6680 ft | 204 kts | 268° |
| 2026-04-27 17:52 | 41.53030 | 45.31022 | 6547 ft | 199 kts | 268° |
| 2026-04-27 17:52 | 41.52906 | 45.29176 | 6423 ft | 200 kts | 268° |
| 2026-04-27 17:52 | 41.52781 | 45.27330 | 6310 ft | 195 kts | 269° |
| 2026-04-27 17:53 | 41.52658 | 45.25525 | 6160 ft | 189 kts | 269° |
| 2026-04-27 17:53 | 41.52544 | 45.23831 | 6028 ft | 181 kts | 269° |
| 2026-04-27 17:53 | 41.52433 | 45.22181 | 5915 ft | 178 kts | 269° |
| 2026-04-27 17:53 | 41.52321 | 45.20524 | 5806 ft | 179 kts | 268° |
| 2026-04-27 17:54 | 41.52210 | 45.18897 | 5681 ft | 176 kts | 268° |
| 2026-04-27 17:54 | 41.52098 | 45.17257 | 5557 ft | 178 kts | 268° |
| 2026-04-27 17:54 | 41.51985 | 45.15587 | 5442 ft | 179 kts | 270° |
| 2026-04-27 17:54 | 41.52099 | 45.13968 | 5212 ft | 175 kts | 298° |
| 2026-04-27 17:55 | 41.52833 | 45.12710 | 4990 ft | 168 kts | 317° |
| 2026-04-27 17:55 | 41.53687 | 45.11661 | 4775 ft | 162 kts | 319° |
| 2026-04-27 17:55 | 41.54489 | 45.10679 | 4574 ft | 152 kts | 318° |
| 2026-04-27 17:55 | 41.55252 | 45.09730 | 4381 ft | 147 kts | 317° |
| 2026-04-27 17:56 | 41.55991 | 45.08808 | 4193 ft | 146 kts | 316° |
| 2026-04-27 17:56 | 41.56743 | 45.07864 | 3992 ft | 147 kts | 316° |
| 2026-04-27 17:56 | 41.57497 | 45.06920 | 3787 ft | 147 kts | 316° |
| 2026-04-27 17:56 | 41.58230 | 45.06003 | 3586 ft | 138 kts | 316° |
| 2026-04-27 17:57 | 41.58913 | 45.05146 | 3412 ft | 134 kts | 316° |
| 2026-04-27 17:57 | 41.59585 | 45.04305 | 3232 ft | 133 kts | 316° |
| 2026-04-27 17:57 | 41.60260 | 45.03459 | 3048 ft | 131 kts | 316° |
| 2026-04-27 17:57 | 41.60912 | 45.02641 | 2871 ft | 127 kts | 315° |
| 2026-04-27 17:58 | 41.61542 | 45.01850 | 2694 ft | 122 kts | 314° |
| 2026-04-27 17:58 | 41.62148 | 45.01079 | 2532 ft | 116 kts | 314° |
| 2026-04-27 17:58 | 41.62743 | 45.00346 | 2378 ft | 116 kts | 314° |
| 2026-04-27 17:58 | 41.63314 | 44.99635 | 2240 ft | 111 kts | 313° |
| 2026-04-27 17:59 | 41.63864 | 44.98936 | 2095 ft | 109 kts | 314° |
| 2026-04-27 17:59 | 41.64410 | 44.98249 | 1941 ft | 106 kts | 313° |
| 2026-04-27 17:59 | 41.64943 | 44.97617 | 1801 ft | 101 kts | 311° |
| 2026-04-27 17:59 | 41.65445 | 44.96965 | 1685 ft | 98 kts | 312° |
| 2026-04-27 18:00 | 41.65952 | 44.96332 | 1548 ft | 100 kts | 312° |
| 2026-04-27 18:00 | 41.66412 | 44.95764 | 1701 ft | 75 kts | 313° |
| 2026-04-27 18:00 | 41.66847 | 44.95295 | 1868 ft | 97 kts | 311° |
| 2026-04-27 18:00 | 41.67348 | 44.94614 | 2475 ft | 111 kts | 310° |
| 2026-04-27 18:01 | 41.67899 | 44.93765 | 3047 ft | 135 kts | 308° |
| 2026-04-27 18:01 | 41.68465 | 44.92718 | 3606 ft | 141 kts | 304° |
| 2026-04-27 18:01 | 41.69120 | 44.91665 | 4405 ft | 153 kts | 310° |
| 2026-04-27 18:01 | 41.69717 | 44.90795 | 5753 ft | 122 kts | 316° |
| 2026-04-27 18:02 | 41.70387 | 44.90076 | 6377 ft | 140 kts | 325° |
| 2026-04-27 18:02 | 41.71337 | 44.89392 | 6853 ft | 176 kts | 335° |
| 2026-04-27 18:02 | 41.72670 | 44.89045 | 6727 ft | 213 kts | 357° |
| 2026-04-27 18:02 | 41.74120 | 44.89661 | 6640 ft | 226 kts | 30° |
| 2026-04-27 18:03 | 41.75185 | 44.91347 | 6780 ft | 258 kts | 62° |
| 2026-04-27 18:03 | 41.75444 | 44.93785 | 6764 ft | 279 kts | 98° |
| 2026-04-27 18:03 | 41.74608 | 44.96135 | 6882 ft | 285 kts | 134° |
| 2026-04-27 18:03 | 41.72944 | 44.97539 | 7021 ft | 282 kts | 165° |
| 2026-04-27 18:04 | 41.71050 | 44.98219 | 7024 ft | 281 kts | 169° |
| 2026-04-27 18:04 | 41.69169 | 44.98813 | 7015 ft | 279 kts | 169° |
| 2026-04-27 18:04 | 41.67272 | 44.99405 | 7017 ft | 280 kts | 169° |
| 2026-04-27 18:04 | 41.65380 | 44.99995 | 7015 ft | 280 kts | 168° |
| 2026-04-27 18:05 | 41.63484 | 45.00586 | 6777 ft | 278 kts | 168° |
| 2026-04-27 18:05 | 41.61623 | 45.01168 | 6534 ft | 267 kts | 169° |
| 2026-04-27 18:05 | 41.59853 | 45.01720 | 6335 ft | 263 kts | 169° |
| 2026-04-27 18:05 | 41.58056 | 45.02279 | 6087 ft | 262 kts | 169° |
| 2026-04-27 18:06 | 41.56294 | 45.02827 | 5829 ft | 261 kts | 169° |
| 2026-04-27 18:06 | 41.54530 | 45.03376 | 5579 ft | 261 kts | 169° |
| 2026-04-27 18:06 | 41.52748 | 45.03930 | 5319 ft | 260 kts | 169° |
| 2026-04-27 18:06 | 41.51077 | 45.04820 | 5051 ft | 260 kts | 144° |
| 2026-04-27 18:07 | 41.49921 | 45.06633 | 4776 ft | 258 kts | 113° |
| 2026-04-27 18:07 | 41.49571 | 45.08895 | 4533 ft | 248 kts | 83° |
| 2026-04-27 18:07 | 41.50048 | 45.10981 | 4556 ft | 228 kts | 57° |
| 2026-04-27 18:07 | 41.51099 | 45.12423 | 4521 ft | 214 kts | 26° |
| 2026-04-27 18:08 | 41.52488 | 45.12828 | 4512 ft | 197 kts | 351° |
| 2026-04-27 18:08 | 41.53672 | 45.12086 | 4515 ft | 187 kts | 315° |
| 2026-04-27 18:08 | 41.54447 | 45.10792 | 4535 ft | 172 kts | 311° |
| 2026-04-27 18:08 | 41.55269 | 45.09675 | 4341 ft | 160 kts | 317° |
| 2026-04-27 18:09 | 41.56074 | 45.08692 | 4139 ft | 151 kts | 316° |
| 2026-04-27 18:09 | 41.56820 | 45.07764 | 3949 ft | 147 kts | 316° |
| 2026-04-27 18:09 | 41.57565 | 45.06833 | 3753 ft | 145 kts | 316° |
| 2026-04-27 18:09 | 41.58276 | 45.05943 | 3564 ft | 135 kts | 316° |
| 2026-04-27 18:10 | 41.58952 | 45.05097 | 3391 ft | 131 kts | 316° |
| 2026-04-27 18:10 | 41.59620 | 45.04261 | 3217 ft | 132 kts | 316° |
| 2026-04-27 18:10 | 41.60280 | 45.03421 | 3039 ft | 129 kts | 316° |
| 2026-04-27 18:10 | 41.60927 | 45.02614 | 2846 ft | 127 kts | 317° |
| 2026-04-27 18:11 | 41.61568 | 45.01854 | 2657 ft | 121 kts | 316° |
| 2026-04-27 18:11 | 41.62201 | 45.01106 | 2525 ft | 118 kts | 314° |
| 2026-04-27 18:11 | 41.62755 | 45.00371 | 2331 ft | 110 kts | 313° |
| 2026-04-27 18:11 | 41.63287 | 44.99691 | 2198 ft | 102 kts | 314° |
| 2026-04-27 18:12 | 41.63817 | 44.99047 | 2073 ft | 104 kts | 313° |
| 2026-04-27 18:12 | 41.64357 | 44.98356 | 1941 ft | 106 kts | 313° |
| 2026-04-27 18:12 | 41.64883 | 44.97709 | 1801 ft | 98 kts | 310° |
| 2026-04-27 18:12 | 41.65374 | 44.97062 | 1656 ft | 97 kts | 313° |
| 2026-04-27 18:13 | 41.65847 | 44.96476 | 1542 ft | 87 kts | 311° |
| 2026-04-27 18:13 | 41.66184 | 44.96030 | 1535 ft | 48 kts | 316° |
| 2026-04-27 18:13 | 41.66419 | 44.95737 | 1541 ft | 46 kts | 316° |
| 2026-04-27 18:13 | 41.66624 | 44.95476 | 1547 ft | 35 kts | 317° |
| 2026-04-27 18:14 | 41.66779 | 44.95280 | 1550 ft | 21 kts | 317° |
| 2026-04-27 18:14 | 41.66847 | 44.95197 | 1551 ft | 10 kts | 323° |
| 2026-04-27 18:14 | 41.66902 | 44.95203 | 1553 ft | 6 kts | 32° |
| 2026-04-27 18:14 | 41.66948 | 44.95256 | 1556 ft | 13 kts | 43° |
| 2026-04-27 18:15 | 41.67022 | 44.95351 | 1560 ft | 14 kts | 44° |
| 2026-04-27 18:15 | 41.67088 | 44.95436 | 1565 ft | 11 kts | 42° |
| 2026-04-27 18:15 | 41.67141 | 44.95502 | 1571 ft | 10 kts | 43° |
| 2026-04-27 18:15 | 41.67205 | 44.95585 | 1578 ft | 8 kts | 43° |
| 2026-04-27 18:16 | 41.67227 | 44.95647 | 1582 ft | 8 kts | 99° |
| 2026-04-27 18:16 | 41.67181 | 44.95735 | 1581 ft | 14 kts | 131° |
| 2026-04-27 18:16 | 41.67108 | 44.95844 | 1579 ft | 14 kts | 126° |
| 2026-04-27 18:16 | 41.67048 | 44.95953 | 1580 ft | 15 kts | 129° |
| 2026-04-27 18:17 | 41.66992 | 44.96034 | 1579 ft | 13 kts | 134° |
| 2026-04-27 18:17 | 41.66935 | 44.96115 | 1577 ft | 7 kts | 133° |
| 2026-04-27 18:17 | 41.66884 | 44.96131 | 1575 ft | 8 kts | 205° |
| 2026-04-27 18:17 | 41.66861 | 44.96109 | 1573 ft | 2 kts | 223° |
| 2026-04-27 18:18 | 41.66851 | 44.96097 | 1572 ft | 0 kts | 223° |